Time;durP1;ratioP1;P1;durP2;ratioP2;P2;SDS_P1;SDS_P2;PMS_P1;PMS_P2;Temp;Humidity;BMP_temperature;BMP_pressure;BME280_temperature;BME280_humidity;BME280_pressure;Samples;Min_cycle;Max_cycle;Signal;HPM_P1;HPM_P2
2021/12/06 00:00:52;;;;;;;0.30;0.10;;;1.40;99.90;;;;;;5056530;28;20454;-88
2021/12/06 00:03:25;;;;;;;0.30;0.10;;;1.40;99.90;;;;;;5066890;28;20977;-88
2021/12/06 00:05:53;;;;;;;0.30;0.10;;;1.50;99.90;;;;;;5066630;28;20524;-87
2021/12/06 00:08:20;;;;;;;0.30;0.20;;;1.50;99.90;;;;;;5069302;28;20196;-87
2021/12/06 00:10:50;;;;;;;0.30;0.10;;;1.50;99.90;;;;;;5064714;28;20772;-87
2021/12/06 00:13:20;;;;;;;0.30;0.10;;;1.50;99.90;;;;;;5067438;28;20512;-88
2021/12/06 00:15:49;;;;;;;0.30;0.20;;;1.50;99.90;;;;;;5068707;28;20473;-89
2021/12/06 00:18:16;;;;;;;0.77;0.47;;;1.50;99.90;;;;;;5068424;28;20447;-87
2021/12/06 00:20:43;;;;;;;0.30;0.10;;;1.40;99.90;;;;;;5069802;28;20450;-87
2021/12/06 00:23:11;;;;;;;0.30;0.10;;;1.40;99.90;;;;;;5068852;28;20824;-87
2021/12/06 00:25:38;;;;;;;0.30;0.10;;;1.50;99.90;;;;;;5066097;28;20489;-88
2021/12/06 00:28:07;;;;;;;0.30;0.10;;;1.50;99.90;;;;;;5069239;28;20316;-87
2021/12/06 00:30:34;;;;;;;0.30;0.20;;;1.60;99.90;;;;;;5063932;28;20217;-88
2021/12/06 00:33:01;;;;;;;0.40;0.25;;;1.60;99.90;;;;;;5071685;28;20465;-88
2021/12/06 00:35:29;;;;;;;0.30;0.10;;;1.50;99.90;;;;;;5085108;28;20180;-88
2021/12/06 00:37:58;;;;;;;1.98;1.67;;;1.50;99.90;;;;;;5075300;28;20467;-87
2021/12/06 00:40:30;;;;;;;0.30;0.10;;;1.50;99.90;;;;;;5066840;28;20230;-87
2021/12/06 00:42:57;;;;;;;0.30;0.10;;;1.50;99.90;;;;;;5058137;28;20221;-87
2021/12/06 00:45:26;;;;;;;0.30;0.10;;;1.50;99.90;;;;;;5049714;28;20237;-89
2021/12/06 00:47:53;;;;;;;0.30;0.10;;;1.60;99.90;;;;;;5063648;28;20201;-87
2021/12/06 00:50:21;;;;;;;0.30;0.10;;;1.50;99.90;;;;;;5069071;28;20486;-87
2021/12/06 00:52:49;;;;;;;0.30;0.30;;;1.50;99.90;;;;;;5069823;28;20439;-89
2021/12/06 00:55:17;;;;;;;0.30;0.10;;;1.50;99.90;;;;;;5065390;28;20196;-87
2021/12/06 00:57:44;;;;;;;0.30;0.20;;;1.60;99.90;;;;;;5069096;28;20459;-87
2021/12/06 01:00:17;;;;;;;0.30;0.10;;;1.60;99.90;;;;;;5049875;28;20840;-87
2021/12/06 01:02:45;;;;;;;0.40;0.23;;;1.50;99.90;;;;;;5055761;28;20558;-87
2021/12/06 01:05:13;;;;;;;0.57;0.45;;;1.50;99.90;;;;;;5058195;28;20443;-87
2021/12/06 01:07:40;;;;;;;0.30;0.20;;;1.50;99.90;;;;;;5059181;28;20224;-87
2021/12/06 01:10:09;;;;;;;0.30;0.20;;;1.50;99.90;;;;;;5063370;28;20266;-88
2021/12/06 01:12:36;;;;;;;0.73;0.73;;;1.60;99.90;;;;;;5064495;28;20194;-87
2021/12/06 01:15:04;;;;;;;0.30;0.10;;;1.60;99.90;;;;;;5058506;28;20232;-87
2021/12/06 01:17:31;;;;;;;0.30;0.10;;;1.60;99.90;;;;;;5067955;28;20201;-89
2021/12/06 01:20:00;;;;;;;0.30;0.20;;;1.60;99.90;;;;;;5070297;28;20442;-88
2021/12/06 01:22:32;;;;;;;0.30;0.10;;;1.60;99.90;;;;;;5071846;28;20208;-87
2021/12/06 01:25:03;;;;;;;0.30;0.10;;;1.60;99.90;;;;;;5061367;28;20530;-87
2021/12/06 01:27:49;;;;;;;0.30;0.20;;;1.50;99.90;;;;;;5052660;28;20470;-87
2021/12/06 01:30:25;;;;;;;0.30;0.10;;;1.50;99.90;;;;;;5065162;28;20489;-89
2021/12/06 01:41:13;;;;;;;0.30;0.20;;;1.30;99.90;;;;;;5070340;28;20436;-87
2021/12/06 01:44:06;;;;;;;0.30;0.20;;;1.20;99.90;;;;;;5069056;28;20222;-87
2021/12/06 01:46:34;;;;;;;0.30;0.10;;;1.20;99.90;;;;;;5072187;28;20224;-87
2021/12/06 01:49:01;;;;;;;0.40;0.40;;;1.20;99.90;;;;;;5054248;28;20654;-90
2021/12/06 01:51:30;;;;;;;0.30;0.10;;;1.20;99.90;;;;;;5068387;28;20231;-86
2021/12/06 01:53:58;;;;;;;0.30;0.10;;;1.20;99.90;;;;;;5065109;28;20477;-87
2021/12/06 01:56:25;;;;;;;0.30;0.20;;;1.20;99.90;;;;;;5069224;28;20205;-86
2021/12/06 01:58:52;;;;;;;0.30;0.10;;;1.20;99.90;;;;;;5070730;28;20220;-87
2021/12/06 02:01:20;;;;;;;0.40;0.30;;;1.20;99.90;;;;;;5070657;28;20660;-89
2021/12/06 02:03:48;;;;;;;0.30;0.10;;;1.30;99.90;;;;;;5064300;28;20286;-86
2021/12/06 02:06:15;;;;;;;0.30;0.10;;;1.20;99.90;;;;;;5069309;28;20199;-87
2021/12/06 02:08:43;;;;;;;0.30;0.10;;;1.20;99.90;;;;;;5071854;28;20223;-89
2021/12/06 02:11:11;;;;;;;0.30;0.10;;;1.20;99.90;;;;;;5071683;28;20215;-87
2021/12/06 02:13:45;;;;;;;0.30;0.10;;;1.20;99.90;;;;;;5070760;28;20207;-87
2021/12/06 02:16:12;;;;;;;0.30;0.10;;;1.10;99.90;;;;;;5063797;28;20716;-87
2021/12/06 02:18:45;;;;;;;0.30;0.10;;;1.10;99.90;;;;;;5069140;28;20211;-88
2021/12/06 02:21:28;;;;;;;0.30;0.20;;;1.10;99.90;;;;;;5072053;28;20214;-90
2021/12/06 02:23:56;;;;;;;0.30;0.10;;;1.00;99.90;;;;;;5067241;28;20247;-88
2021/12/06 02:26:23;;;;;;;0.30;0.20;;;1.00;99.90;;;;;;5069558;28;20224;-87
2021/12/06 02:28:51;;;;;;;0.30;0.10;;;0.90;99.90;;;;;;5093751;28;20182;-88
2021/12/06 02:31:19;;;;;;;0.82;0.82;;;0.90;99.90;;;;;;5075156;28;20230;-87
2021/12/06 02:33:49;;;;;;;0.60;0.57;;;1.00;99.90;;;;;;5072321;28;20201;-88
2021/12/06 02:36:17;;;;;;;0.30;0.20;;;1.00;99.90;;;;;;5066396;28;20196;-88
2021/12/06 02:38:46;;;;;;;0.30;0.10;;;1.00;99.90;;;;;;5061117;28;20207;-87
2021/12/06 02:41:15;;;;;;;0.30;0.10;;;1.00;99.90;;;;;;5066404;28;20273;-89
2021/12/06 02:43:42;;;;;;;1.30;0.52;;;1.00;99.90;;;;;;5069237;28;20205;-88
2021/12/06 02:46:10;;;;;;;0.30;0.15;;;0.90;99.90;;;;;;5061854;28;20684;-88
2021/12/06 02:48:37;;;;;;;0.30;0.20;;;1.00;99.90;;;;;;5070727;28;20195;-89
2021/12/06 02:51:06;;;;;;;2.88;2.15;;;1.00;99.90;;;;;;5062323;28;20224;-88
2021/12/06 02:53:39;;;;;;;0.30;0.10;;;1.00;99.90;;;;;;5049785;28;20216;-88
2021/12/06 02:56:18;;;;;;;0.30;0.10;;;1.00;99.90;;;;;;5066526;28;20206;-88
2021/12/06 02:58:56;;;;;;;0.30;0.20;;;1.00;99.90;;;;;;5067784;28;20964;-88
2021/12/06 03:01:31;;;;;;;0.30;0.10;;;0.90;99.90;;;;;;5060483;28;20207;-88
2021/12/06 03:03:59;;;;;;;0.30;0.20;;;0.80;99.90;;;;;;5060738;28;20522;-88
2021/12/06 03:06:28;;;;;;;1.33;1.33;;;0.90;99.90;;;;;;5068279;28;20601;-87
2021/12/06 03:09:04;;;;;;;0.30;0.23;;;0.80;99.90;;;;;;5067539;28;20477;-87
2021/12/06 03:11:35;;;;;;;0.30;0.20;;;0.80;99.90;;;;;;5070774;28;20908;-87
2021/12/06 03:14:03;;;;;;;0.30;0.10;;;0.70;99.90;;;;;;5069937;28;20232;-88
2021/12/06 03:16:30;;;;;;;2.67;0.75;;;0.70;99.90;;;;;;5066890;28;20341;-87
2021/12/06 03:18:58;;;;;;;0.30;0.10;;;0.70;99.90;;;;;;5065187;28;20200;-87
2021/12/06 03:21:26;;;;;;;0.30;0.10;;;0.60;99.90;;;;;;5071141;28;20205;-87
2021/12/06 03:23:55;;;;;;;0.30;0.10;;;0.60;99.90;;;;;;5069826;28;20235;-90
2021/12/06 03:26:22;;;;;;;0.30;0.10;;;0.60;99.90;;;;;;5088798;28;20224;-87
2021/12/06 03:28:51;;;;;;;0.30;0.10;;;0.60;99.90;;;;;;5088518;28;20658;-87
2021/12/06 03:31:18;;;;;;;0.30;0.22;;;0.60;99.90;;;;;;5061114;28;20258;-87
2021/12/06 03:33:49;;;;;;;0.30;0.10;;;0.60;99.90;;;;;;5058492;28;20622;-87
2021/12/06 03:36:18;;;;;;;0.30;0.10;;;0.70;99.90;;;;;;5071123;28;20276;-87
2021/12/06 03:38:45;;;;;;;0.30;0.10;;;0.60;99.90;;;;;;5068441;28;20253;-87
2021/12/06 03:41:15;;;;;;;0.30;0.20;;;0.60;99.90;;;;;;5069932;28;20197;-87
2021/12/06 03:43:43;;;;;;;0.30;0.10;;;0.60;99.90;;;;;;5069847;28;20211;-87
2021/12/06 03:46:14;;;;;;;0.30;0.10;;;0.60;99.90;;;;;;5061031;28;20197;-88
2021/12/06 03:48:42;;;;;;;0.30;0.10;;;0.60;99.90;;;;;;5069010;28;20194;-88
2021/12/06 03:51:10;;;;;;;0.30;0.10;;;0.60;99.90;;;;;;5066089;28;20269;-91
2021/12/06 03:53:38;;;;;;;0.38;0.32;;;0.60;99.90;;;;;;5067970;28;20201;-90
2021/12/06 03:56:06;;;;;;;0.30;0.10;;;0.60;99.90;;;;;;5065163;28;20208;-89
2021/12/06 03:58:35;;;;;;;0.30;0.10;;;0.50;99.90;;;;;;5066726;28;20459;-89
2021/12/06 04:01:03;;;;;;;0.30;0.20;;;0.50;99.90;;;;;;5066918;28;20220;-89
2021/12/06 04:03:34;;;;;;;0.30;0.10;;;0.40;99.90;;;;;;5064148;28;20252;-88
2021/12/06 04:06:04;;;;;;;0.30;0.17;;;0.40;99.90;;;;;;5064461;28;20228;-89
2021/12/06 04:08:31;;;;;;;0.30;0.10;;;0.40;99.90;;;;;;5063134;28;20952;-88
2021/12/06 04:10:58;;;;;;;0.30;0.10;;;0.40;99.90;;;;;;5066725;28;20274;-89
2021/12/06 04:13:25;;;;;;;0.30;0.10;;;0.50;99.90;;;;;;5068656;28;20196;-87
2021/12/06 04:15:53;;;;;;;0.30;0.10;;;0.50;99.90;;;;;;5067967;28;20461;-88
2021/12/06 04:18:20;;;;;;;0.30;0.10;;;0.50;99.90;;;;;;5053479;28;20209;-88
2021/12/06 04:20:48;;;;;;;0.30;0.10;;;0.60;99.90;;;;;;5063660;28;20187;-88
2021/12/06 04:23:16;;;;;;;0.30;0.10;;;0.70;99.90;;;;;;5087758;28;20203;-88
2021/12/06 04:25:44;;;;;;;0.30;0.10;;;0.70;99.90;;;;;;5082043;28;20933;-87
2021/12/06 04:28:14;;;;;;;0.30;0.10;;;0.70;99.90;;;;;;5070410;28;20225;-90
2021/12/06 04:30:41;;;;;;;0.30;0.10;;;0.70;99.90;;;;;;5063945;28;20192;-88
2021/12/06 04:33:09;;;;;;;0.30;0.10;;;0.70;99.90;;;;;;5069103;28;20252;-89
2021/12/06 04:35:38;;;;;;;0.30;0.10;;;0.80;99.90;;;;;;5067118;28;20198;-89
2021/12/06 04:38:08;;;;;;;0.30;0.20;;;0.80;99.90;;;;;;5066846;28;20278;-88
2021/12/06 04:40:35;;;;;;;0.30;0.10;;;0.80;99.90;;;;;;5069236;28;20249;-88
2021/12/06 04:43:02;;;;;;;0.30;0.10;;;0.80;99.90;;;;;;5069564;28;20209;-88
2021/12/06 04:45:30;;;;;;;0.30;0.10;;;0.80;99.90;;;;;;5066466;28;20260;-90
2021/12/06 04:47:57;;;;;;;0.30;0.10;;;0.70;99.90;;;;;;5069307;28;20198;-88
2021/12/06 04:50:28;;;;;;;0.30;0.10;;;0.80;99.90;;;;;;5069214;28;20234;-88
2021/12/06 04:52:58;;;;;;;0.30;0.10;;;0.80;99.90;;;;;;5069496;28;20258;-89
2021/12/06 04:55:37;;;;;;;0.40;0.35;;;0.70;99.90;;;;;;5068951;28;20609;-89
2021/12/06 04:58:05;;;;;;;0.30;0.10;;;0.80;99.90;;;;;;5072494;28;20206;-89
2021/12/06 05:00:37;;;;;;;0.30;0.10;;;0.80;99.90;;;;;;5072836;28;20323;-88
2021/12/06 05:03:04;;;;;;;0.30;0.10;;;0.80;99.90;;;;;;5072393;28;20211;-90
2021/12/06 05:05:35;;;;;;;0.30;0.10;;;0.80;99.90;;;;;;5073400;28;20257;-88
2021/12/06 05:08:05;;;;;;;0.45;0.38;;;0.90;99.90;;;;;;5062883;28;20649;-88
2021/12/06 05:10:34;;;;;;;0.30;0.20;;;0.90;99.90;;;;;;5071477;28;20197;-90
2021/12/06 05:13:01;;;;;;;0.30;0.10;;;0.90;99.90;;;;;;5073197;28;20272;-89
2021/12/06 05:15:28;;;;;;;0.30;0.10;;;0.90;99.90;;;;;;5071756;28;20199;-88
2021/12/06 05:17:55;;;;;;;0.30;0.10;;;0.90;99.90;;;;;;5062995;28;20185;-89
2021/12/06 05:20:22;;;;;;;0.30;0.20;;;1.00;99.90;;;;;;5082933;28;20218;-88
2021/12/06 05:22:50;;;;;;;0.30;0.10;;;1.00;99.90;;;;;;5084425;28;20200;-89
2021/12/06 05:25:18;;;;;;;1.65;1.55;;;1.00;99.90;;;;;;5070272;28;20201;-88
2021/12/06 05:27:47;;;;;;;0.30;0.10;;;1.00;99.90;;;;;;5064237;28;20237;-88
2021/12/06 05:30:15;;;;;;;0.30;0.10;;;1.00;99.90;;;;;;5067206;28;20232;-88
2021/12/06 05:32:43;;;;;;;0.40;0.38;;;1.00;99.90;;;;;;5057740;28;20227;-88
2021/12/06 05:35:12;;;;;;;0.30;0.10;;;1.10;99.90;;;;;;5072052;28;20200;-90
2021/12/06 05:37:44;;;;;;;0.30;0.10;;;1.10;99.90;;;;;;5068138;28;20192;-89
2021/12/06 05:40:14;;;;;;;0.30;0.10;;;1.10;99.90;;;;;;5067680;28;20557;-89
2021/12/06 05:42:41;;;;;;;2.08;1.30;;;1.10;99.90;;;;;;5066403;28;20196;-85
2021/12/06 05:45:12;;;;;;;0.30;0.10;;;1.10;99.90;;;;;;5062831;28;20216;-89
2021/12/06 05:47:39;;;;;;;0.30;0.10;;;1.10;99.90;;;;;;5071093;28;20273;-90
2021/12/06 05:50:07;;;;;;;0.30;0.10;;;1.10;99.90;;;;;;5066686;28;20262;-90
2021/12/06 05:52:35;;;;;;;0.30;0.10;;;1.20;99.90;;;;;;5072418;28;20216;-88
2021/12/06 05:55:02;;;;;;;0.30;0.10;;;1.10;99.90;;;;;;5072192;28;20203;-90
2021/12/06 05:57:29;;;;;;;0.30;0.20;;;1.20;99.90;;;;;;5072850;28;20199;-87
2021/12/06 05:59:56;;;;;;;0.30;0.10;;;1.20;99.90;;;;;;5072356;28;20216;-89
2021/12/06 06:02:25;;;;;;;0.30;0.10;;;1.10;99.90;;;;;;5072040;28;20211;-89
2021/12/06 06:04:52;;;;;;;0.30;0.13;;;1.20;99.90;;;;;;5070972;28;21018;-88
2021/12/06 06:07:19;;;;;;;0.30;0.10;;;1.10;99.90;;;;;;5064980;28;20517;-90
2021/12/06 06:09:46;;;;;;;0.30;0.10;;;1.10;99.90;;;;;;5071857;28;20500;-88
2021/12/06 06:12:13;;;;;;;0.70;0.67;;;1.20;99.90;;;;;;5073217;28;20488;-88
2021/12/06 06:14:40;;;;;;;0.30;0.10;;;1.20;99.90;;;;;;5079483;28;20434;-88
2021/12/06 06:17:11;;;;;;;0.85;0.63;;;1.20;99.90;;;;;;5079311;28;20478;-89
2021/12/06 06:19:42;;;;;;;0.30;0.10;;;1.20;99.90;;;;;;5062974;28;20208;-88
2021/12/06 06:22:09;;;;;;;0.30;0.10;;;1.20;99.90;;;;;;5054931;28;20436;-88
2021/12/06 06:24:36;;;;;;;0.30;0.10;;;1.20;99.90;;;;;;5068518;28;20258;-88
2021/12/06 06:27:04;;;;;;;0.30;0.10;;;1.20;99.90;;;;;;5072791;28;20473;-90
2021/12/06 06:29:31;;;;;;;0.30;0.10;;;1.10;99.90;;;;;;5072667;28;20204;-88
2021/12/06 06:31:58;;;;;;;0.35;0.22;;;1.10;99.90;;;;;;5072298;28;20212;-88
2021/12/06 06:34:25;;;;;;;0.30;0.10;;;1.10;99.90;;;;;;5070682;28;20277;-89
2021/12/06 06:36:54;;;;;;;0.30;0.10;;;1.10;99.90;;;;;;5066623;28;20450;-89
2021/12/06 06:39:22;;;;;;;0.30;0.10;;;1.10;99.90;;;;;;5068828;28;20232;-88
2021/12/06 06:41:51;;;;;;;0.30;0.10;;;1.20;99.90;;;;;;5071636;28;20253;-90
2021/12/06 06:44:20;;;;;;;0.30;0.10;;;1.20;99.90;;;;;;5072237;28;20196;-90
2021/12/06 06:46:48;;;;;;;0.30;0.10;;;1.20;99.90;;;;;;5070808;28;20879;-88
2021/12/06 06:49:16;;;;;;;0.30;0.10;;;1.20;99.90;;;;;;5071480;28;20786;-89
2021/12/06 06:51:46;;;;;;;0.30;0.15;;;1.20;99.90;;;;;;5071673;28;20216;-89
2021/12/06 06:54:15;;;;;;;0.30;0.10;;;1.20;99.90;;;;;;5064285;28;20212;-91
2021/12/06 06:56:42;;;;;;;4.90;1.48;;;1.20;99.90;;;;;;5051062;28;20198;-89
2021/12/06 06:59:09;;;;;;;0.30;0.10;;;1.20;99.90;;;;;;5052487;28;20202;-91
2021/12/06 07:01:36;;;;;;;0.85;0.85;;;1.20;99.90;;;;;;5062889;28;20647;-89
2021/12/06 07:04:03;;;;;;;0.30;0.10;;;1.20;99.90;;;;;;5070990;28;20204;-89
2021/12/06 07:06:30;;;;;;;0.30;0.17;;;1.20;99.90;;;;;;5070832;28;20723;-90
2021/12/06 07:08:58;;;;;;;0.35;0.25;;;1.20;99.90;;;;;;5071380;28;20198;-90
2021/12/06 07:11:27;;;;;;;0.30;0.10;;;1.20;99.90;;;;;;5071780;28;20269;-92
2021/12/06 07:13:55;;;;;;;0.93;0.55;;;1.30;99.90;;;;;;5095037;28;20235;-90
2021/12/06 07:16:22;;;;;;;0.30;0.10;;;1.20;99.90;;;;;;5086115;28;20258;-89
2021/12/06 07:18:49;;;;;;;1.50;0.75;;;1.30;99.90;;;;;;5071119;28;20483;-90
2021/12/06 07:21:17;;;;;;;0.30;0.20;;;1.20;99.90;;;;;;5070381;28;20210;-90
2021/12/06 07:23:45;;;;;;;0.30;0.10;;;1.20;99.90;;;;;;5080118;28;20449;-89
2021/12/06 07:26:15;;;;;;;0.30;0.10;;;1.20;99.90;;;;;;5070771;28;20486;-89
2021/12/06 07:28:45;;;;;;;0.30;0.10;;;1.20;99.90;;;;;;5070763;28;20196;-91
2021/12/06 07:31:14;;;;;;;0.30;0.10;;;1.20;99.90;;;;;;5066672;28;20354;-89
2021/12/06 07:33:42;;;;;;;0.30;0.20;;;1.30;99.90;;;;;;5067754;28;20540;-89
2021/12/06 07:36:10;;;;;;;0.30;0.10;;;1.30;99.90;;;;;;5067767;28;20255;-89
2021/12/06 07:38:38;;;;;;;0.30;0.10;;;1.30;99.90;;;;;;5062121;28;20449;-90
2021/12/06 07:41:06;;;;;;;0.30;0.10;;;1.30;99.90;;;;;;5069229;28;20888;-90
2021/12/06 07:43:34;;;;;;;0.40;0.30;;;1.30;99.90;;;;;;5070352;28;20204;-90
2021/12/06 07:46:05;;;;;;;4.57;1.77;;;1.30;99.90;;;;;;5069872;28;20208;-89
2021/12/06 07:48:32;;;;;;;0.30;0.10;;;1.40;99.90;;;;;;5069454;28;20257;-90
2021/12/06 07:51:01;;;;;;;0.30;0.10;;;1.40;99.90;;;;;;5063609;28;20261;-89
2021/12/06 07:53:29;;;;;;;0.30;0.10;;;1.50;99.90;;;;;;5054366;28;20236;-88
2021/12/06 07:55:56;;;;;;;0.30;0.17;;;1.50;99.90;;;;;;5055169;28;20196;-90
2021/12/06 07:58:23;;;;;;;0.30;0.10;;;1.60;99.90;;;;;;5067098;28;20191;-89
2021/12/06 08:00:52;;;;;;;0.30;0.10;;;1.70;99.90;;;;;;5070137;28;20272;-89
2021/12/06 08:03:22;;;;;;;0.30;0.10;;;1.80;99.90;;;;;;5067149;28;20211;-89
2021/12/06 08:05:52;;;;;;;0.30;0.10;;;1.90;99.90;;;;;;5068579;28;20455;-93
2021/12/06 08:08:23;;;;;;;0.30;0.20;;;1.90;99.90;;;;;;5069827;28;20443;-89
2021/12/06 08:10:53;;;;;;;0.30;0.10;;;1.90;99.90;;;;;;5089704;28;20438;-89
2021/12/06 08:13:23;;;;;;;3.42;3.22;;;2.10;99.90;;;;;;5081325;28;20225;-89
2021/12/06 08:15:51;;;;;;;2.22;2.05;;;2.30;99.90;;;;;;5067101;28;20270;-89
2021/12/06 08:18:20;;;;;;;3.77;0.93;;;2.20;99.90;;;;;;5067074;28;20219;-90
2021/12/06 08:20:48;;;;;;;0.30;0.10;;;2.20;99.90;;;;;;5069018;28;20944;-89
2021/12/06 08:23:16;;;;;;;1.90;1.07;;;2.20;99.90;;;;;;5069572;28;20197;-88
2021/12/06 08:25:46;;;;;;;0.30;0.10;;;2.30;99.90;;;;;;5062435;28;20466;-91
2021/12/06 08:28:13;;;;;;;0.30;0.10;;;2.30;99.90;;;;;;5055606;28;20464;-88
2021/12/06 08:30:40;;;;;;;0.30;0.20;;;2.30;99.90;;;;;;5056335;28;20678;-89
2021/12/06 08:33:08;;;;;;;25.70;2.00;;;2.10;99.90;;;;;;5070189;28;20475;-88
2021/12/06 08:35:40;;;;;;;0.30;0.10;;;2.10;99.90;;;;;;5070026;28;20436;-89
2021/12/06 08:38:08;;;;;;;0.30;0.20;;;2.20;99.90;;;;;;5070088;28;20239;-89
2021/12/06 08:40:36;;;;;;;0.30;0.10;;;2.30;99.90;;;;;;5062525;28;20589;-90
2021/12/06 08:43:03;;;;;;;0.30;0.20;;;2.40;99.90;;;;;;5068589;28;20535;-89
2021/12/06 08:45:31;;;;;;;0.30;0.20;;;2.40;99.90;;;;;;5068419;28;20493;-88
2021/12/06 08:47:59;;;;;;;0.30;0.20;;;2.30;99.90;;;;;;5069065;28;20450;-87
2021/12/06 08:50:28;;;;;;;0.60;0.60;;;2.30;99.90;;;;;;5067861;28;20809;-87
2021/12/06 08:52:56;;;;;;;0.30;0.10;;;2.40;99.90;;;;;;5069752;28;20493;-87
2021/12/06 08:55:24;;;;;;;0.30;0.10;;;2.30;99.90;;;;;;5069264;28;21021;-87
2021/12/06 08:57:51;;;;;;;0.30;0.20;;;2.50;99.90;;;;;;5068912;28;20482;-87
2021/12/06 09:00:25;;;;;;;1.67;1.57;;;2.70;99.90;;;;;;5070129;28;20519;-85
2021/12/06 09:02:53;;;;;;;2.90;2.80;;;2.80;99.90;;;;;;5069703;28;20978;-86
2021/12/06 09:05:21;;;;;;;1.23;0.73;;;2.90;99.90;;;;;;5073505;28;20446;-87
2021/12/06 09:07:49;;;;;;;0.30;0.20;;;2.70;99.90;;;;;;5090047;28;20459;-87
2021/12/06 09:10:17;;;;;;;0.30;0.10;;;2.40;99.90;;;;;;5078515;28;20852;-85
2021/12/06 09:12:45;;;;;;;0.30;0.20;;;2.40;99.90;;;;;;5069832;28;20483;-86
2021/12/06 09:15:15;;;;;;;0.30;0.10;;;2.40;99.90;;;;;;5069660;28;20445;-86
2021/12/06 09:17:43;;;;;;;0.30;0.10;;;2.40;99.90;;;;;;5060229;28;21022;-86
2021/12/06 09:20:13;;;;;;;0.30;0.10;;;2.40;99.90;;;;;;5068685;28;20193;-86
2021/12/06 09:22:41;;;;;;;0.60;0.60;;;2.50;99.90;;;;;;5068801;28;20650;-87
2021/12/06 09:25:10;;;;;;;0.30;0.10;;;2.50;99.90;;;;;;5067138;28;21042;-88
2021/12/06 09:27:39;;;;;;;0.30;0.20;;;2.70;99.90;;;;;;5067832;28;20784;-87
2021/12/06 09:30:09;;;;;;;0.30;0.20;;;2.80;99.90;;;;;;5069010;28;20497;-86
2021/12/06 09:32:37;;;;;;;0.30;0.10;;;2.70;99.90;;;;;;5069210;28;20555;-87
2021/12/06 09:35:04;;;;;;;0.30;0.10;;;2.80;99.90;;;;;;5068880;28;20460;-88
2021/12/06 09:37:32;;;;;;;0.30;0.10;;;2.80;99.90;;;;;;5069767;28;20447;-86
2021/12/06 09:39:59;;;;;;;0.30;0.10;;;2.90;99.90;;;;;;5069319;28;20485;-85
2021/12/06 09:42:32;;;;;;;0.40;0.37;;;2.80;99.90;;;;;;5071738;28;20793;-86
2021/12/06 09:45:01;;;;;;;2.83;0.57;;;2.90;99.90;;;;;;5072611;28;20486;-86
2021/12/06 09:47:28;;;;;;;0.30;0.15;;;2.90;99.90;;;;;;5072623;28;20468;-86
2021/12/06 09:49:56;;;;;;;0.30;0.10;;;2.90;99.90;;;;;;5072876;28;20196;-87
2021/12/06 09:52:23;;;;;;;0.30;0.10;;;2.80;99.90;;;;;;5073247;28;20568;-86
2021/12/06 09:54:50;;;;;;;0.70;0.33;;;2.70;99.90;;;;;;5071469;28;20451;-86
2021/12/06 09:57:17;;;;;;;0.30;0.10;;;2.80;99.90;;;;;;5063646;28;20478;-86
2021/12/06 09:59:45;;;;;;;0.30;0.10;;;2.80;99.90;;;;;;5073239;28;20544;-86
2021/12/06 10:02:17;;;;;;;0.30;0.10;;;2.80;99.90;;;;;;5082788;28;20522;-87
2021/12/06 10:04:50;;;;;;;0.30;0.10;;;2.80;99.90;;;;;;5093205;28;20429;-85
2021/12/06 10:07:19;;;;;;;0.30;0.10;;;2.80;99.90;;;;;;5083579;28;20459;-89
2021/12/06 10:09:46;;;;;;;0.30;0.20;;;2.70;99.90;;;;;;5054440;28;20722;-86
2021/12/06 10:12:16;;;;;;;0.30;0.20;;;2.80;99.90;;;;;;5052573;28;20518;-85
2021/12/06 10:14:43;;;;;;;0.30;0.10;;;2.70;99.90;;;;;;5055859;28;20459;-86
2021/12/06 10:17:11;;;;;;;0.30;0.10;;;2.70;99.90;;;;;;5072426;28;20439;-89
2021/12/06 10:19:39;;;;;;;0.30;0.10;;;2.50;99.90;;;;;;5071865;28;20504;-86
2021/12/06 10:22:06;;;;;;;0.30;0.10;;;2.40;99.90;;;;;;5072393;28;20203;-90
2021/12/06 10:24:34;;;;;;;0.30;0.20;;;2.50;99.90;;;;;;5088748;28;20199;-86
2021/12/06 10:27:06;;;;;;;0.30;0.10;;;2.30;99.90;;;;;;5092497;28;20682;-88
2021/12/06 10:29:39;;;;;;;0.30;0.20;;;2.30;99.90;;;;;;5091999;28;20200;-85
2021/12/06 10:32:13;;;;;;;0.30;0.10;;;2.30;99.90;;;;;;5073015;28;20204;-88
2021/12/06 10:34:44;;;;;;;0.73;0.67;;;2.40;99.90;;;;;;5071693;28;20479;-85
2021/12/06 10:37:28;;;;;;;0.30;0.10;;;2.50;99.90;;;;;;5071762;28;20504;-85
2021/12/06 10:39:56;;;;;;;0.30;0.10;;;2.50;99.90;;;;;;5071062;28;20917;-87
2021/12/06 10:42:28;;;;;;;0.30;0.10;;;2.50;99.90;;;;;;5072001;28;20438;-85
2021/12/06 10:44:55;;;;;;;0.30;0.10;;;2.50;99.90;;;;;;5070767;28;20494;-85
2021/12/06 10:47:22;;;;;;;0.30;0.10;;;2.50;99.90;;;;;;5071800;28;20516;-88
2021/12/06 10:49:50;;;;;;;0.30;0.13;;;2.60;99.90;;;;;;5072312;28;20527;-85
2021/12/06 10:52:28;;;;;;;0.30;0.10;;;2.60;99.90;;;;;;5070624;28;20495;-85
2021/12/06 10:54:55;;;;;;;0.30;0.10;;;2.60;99.90;;;;;;5071031;28;20503;-85
2021/12/06 10:57:22;;;;;;;0.30;0.10;;;2.60;99.90;;;;;;5071953;28;20439;-86
2021/12/06 10:59:49;;;;;;;0.30;0.10;;;2.70;99.90;;;;;;5086189;28;20424;-86
2021/12/06 11:02:16;;;;;;;0.30;0.10;;;2.90;99.90;;;;;;5085968;28;20448;-85
2021/12/06 11:04:43;;;;;;;0.30;0.20;;;2.90;99.90;;;;;;5078219;28;20438;-87
2021/12/06 11:07:12;;;;;;;0.30;0.20;;;3.00;99.90;;;;;;5071323;28;20804;-85
2021/12/06 11:09:42;;;;;;;0.50;0.30;;;2.90;99.90;;;;;;5071235;28;20470;-89
2021/12/06 11:12:11;;;;;;;0.30;0.20;;;2.80;99.90;;;;;;5071484;28;20205;-85
2021/12/06 11:14:41;;;;;;;0.30;0.17;;;2.70;99.90;;;;;;5070388;28;21129;-87
2021/12/06 11:17:10;;;;;;;0.30;0.20;;;2.80;99.90;;;;;;5071240;28;20496;-86
2021/12/06 11:19:38;;;;;;;0.30;0.10;;;2.90;99.90;;;;;;5070914;28;20661;-86
2021/12/06 11:22:07;;;;;;;0.30;0.10;;;3.00;99.90;;;;;;5070645;28;20540;-85
2021/12/06 11:24:39;;;;;;;0.53;0.53;;;3.10;99.90;;;;;;5087010;28;20223;-85
2021/12/06 11:27:09;;;;;;;0.30;0.20;;;3.10;99.90;;;;;;5067309;28;21011;-88
2021/12/06 11:29:39;;;;;;;0.30;0.17;;;3.00;99.90;;;;;;5069845;28;20455;-89
2021/12/06 11:32:10;;;;;;;0.30;0.10;;;2.90;99.90;;;;;;5070859;28;20882;-85
2021/12/06 11:34:39;;;;;;;0.30;0.10;;;2.90;99.90;;;;;;5070861;28;20525;-89
2021/12/06 11:37:17;;;;;;;0.30;0.20;;;2.90;99.90;;;;;;5070155;28;20455;-85
2021/12/06 11:39:49;;;;;;;0.30;0.30;;;2.90;99.90;;;;;;5070075;28;20463;-87
2021/12/06 11:42:17;;;;;;;0.40;0.40;;;2.90;99.90;;;;;;5071102;28;20533;-85
2021/12/06 11:44:45;;;;;;;0.30;0.10;;;2.80;99.90;;;;;;5070621;28;20447;-86
2021/12/06 11:47:14;;;;;;;0.30;0.10;;;2.90;99.90;;;;;;5071081;28;20549;-85
2021/12/06 11:49:43;;;;;;;0.30;0.10;;;2.90;99.90;;;;;;5070770;28;20458;-85
2021/12/06 11:52:16;;;;;;;4.40;2.37;;;2.80;99.90;;;;;;5072313;28;20495;-85
2021/12/06 11:54:48;;;;;;;0.30;0.10;;;2.80;99.90;;;;;;5072598;28;20497;-85
2021/12/06 11:57:19;;;;;;;5.53;1.00;;;2.90;99.90;;;;;;5094927;28;20481;-84
2021/12/06 11:59:59;;;;;;;0.30;0.20;;;3.00;99.90;;;;;;5081872;28;20516;-86
2021/12/06 12:02:38;;;;;;;0.30;0.10;;;3.00;99.90;;;;;;5051532;28;20448;-85
2021/12/06 12:05:30;;;;;;;0.53;0.53;;;3.10;99.90;;;;;;5050360;28;20456;-85
2021/12/06 12:08:09;;;;;;;0.30;0.10;;;3.20;99.90;;;;;;5048363;28;20463;-86
2021/12/06 12:10:44;;;;;;;0.30;0.10;;;3.10;99.90;;;;;;5070022;28;20440;-87
2021/12/06 12:13:15;;;;;;;0.30;0.20;;;3.10;99.90;;;;;;5070841;28;20525;-86
2021/12/06 12:15:42;;;;;;;0.30;0.10;;;3.00;99.90;;;;;;5069966;28;20454;-88
2021/12/06 12:18:09;;;;;;;0.30;0.10;;;2.90;99.90;;;;;;5070164;28;20958;-88
2021/12/06 12:20:37;;;;;;;0.30;0.30;;;2.80;99.90;;;;;;5070861;28;20881;-85
2021/12/06 12:23:08;;;;;;;0.30;0.10;;;2.80;99.90;;;;;;5072778;28;20195;-85
2021/12/06 12:25:44;;;;;;;0.30;0.20;;;2.80;99.90;;;;;;5090326;28;20453;-89
2021/12/06 12:28:19;;;;;;;0.30;0.10;;;2.90;99.90;;;;;;5068457;28;20470;-86
2021/12/06 12:30:47;;;;;;;0.30;0.20;;;3.00;99.90;;;;;;5061175;28;20517;-85
2021/12/06 12:33:19;;;;;;;0.30;0.10;;;3.00;99.90;;;;;;5069920;28;20522;-86
2021/12/06 12:35:47;;;;;;;0.30;0.10;;;3.10;99.90;;;;;;5069610;28;20462;-85
2021/12/06 12:38:19;;;;;;;0.30;0.10;;;3.10;99.90;;;;;;5069657;28;20930;-88
2021/12/06 12:40:53;;;;;;;0.30;0.10;;;3.10;99.90;;;;;;5068547;28;20510;-85
2021/12/06 12:43:23;;;;;;;0.30;0.10;;;3.00;99.90;;;;;;5069024;28;21143;-86
2021/12/06 12:45:52;;;;;;;0.40;0.30;;;2.90;99.90;;;;;;5068541;28;20659;-86
2021/12/06 12:48:23;;;;;;;0.40;0.40;;;2.80;99.90;;;;;;5069912;28;20443;-86
2021/12/06 12:51:06;;;;;;;0.30;0.10;;;2.80;99.90;;;;;;5070343;28;20791;-86
2021/12/06 12:53:46;;;;;;;1.03;1.03;;;2.90;99.90;;;;;;5086800;28;20483;-86
2021/12/06 12:56:23;;;;;;;0.30;0.10;;;2.80;99.90;;;;;;5083648;28;20482;-88
2021/12/06 12:58:51;;;;;;;0.40;0.20;;;3.00;99.90;;;;;;5073207;28;20987;-85
2021/12/06 13:01:20;;;;;;;0.30;0.10;;;3.10;99.90;;;;;;5070183;28;20458;-86
2021/12/06 13:03:54;;;;;;;0.30;0.10;;;3.30;99.90;;;;;;5069044;28;20933;-86
2021/12/06 13:06:25;;;;;;;0.30;0.10;;;3.40;99.90;;;;;;5061917;28;20474;-86
2021/12/06 13:08:58;;;;;;;0.30;0.10;;;3.40;99.90;;;;;;5069385;28;20984;-87
2021/12/06 13:11:31;;;;;;;0.30;0.10;;;3.50;99.90;;;;;;5068740;28;20467;-89
2021/12/06 13:13:59;;;;;;;0.30;0.10;;;3.50;99.90;;;;;;5055543;28;20472;-87
2021/12/06 13:16:38;;;;;;;0.30;0.10;;;3.60;99.90;;;;;;5050962;28;20472;-87